createdAt,value
2018-03-26T00:00:14.372Z,9.00
2018-03-26T00:03:16.649Z,8.90
2018-03-26T00:06:17.949Z,9.00
2018-03-26T00:09:19.239Z,9.00
2018-03-26T00:12:20.526Z,9.00
2018-03-26T00:15:21.820Z,9.00
2018-03-26T00:18:23.825Z,8.80
2018-03-26T00:21:25.118Z,8.80
2018-03-26T00:24:26.397Z,8.90
2018-03-26T00:27:27.703Z,9.00
2018-03-26T00:30:29.743Z,9.00
2018-03-26T00:33:31.042Z,9.00
2018-03-26T00:36:33.040Z,9.00
2018-03-26T00:39:34.316Z,9.00
2018-03-26T00:42:35.592Z,9.00
2018-03-26T00:49:09.217Z,8.80
2018-03-26T00:52:10.588Z,8.90
2018-03-26T00:55:11.906Z,8.80
2018-03-26T00:58:13.172Z,8.70
2018-03-26T01:01:14.449Z,8.70
2018-03-26T01:04:15.715Z,8.80
2018-03-26T01:07:16.996Z,8.70
2018-03-26T01:10:18.310Z,8.70
2018-03-26T01:13:19.611Z,8.80
2018-03-26T01:16:21.623Z,8.80
2018-03-26T01:19:22.892Z,8.80
2018-03-26T01:22:24.202Z,8.80
2018-03-26T01:25:25.519Z,8.70
2018-03-26T01:28:26.822Z,8.80
2018-03-26T01:31:28.110Z,8.90
2018-03-26T01:34:29.454Z,9.00
2018-03-26T01:37:30.831Z,9.00
2018-03-26T01:40:39.085Z,8.90
2018-03-26T01:43:41.154Z,8.80
2018-03-26T01:46:42.457Z,8.80
2018-03-26T01:49:43.747Z,8.80
2018-03-26T01:52:45.046Z,8.70
2018-03-26T01:55:46.868Z,8.70
2018-03-26T01:58:48.161Z,8.90
2018-03-26T02:01:49.421Z,8.90
2018-03-26T02:04:50.705Z,9.00
2018-03-26T02:07:52.029Z,9.00
2018-03-26T02:10:53.309Z,9.00
2018-03-26T02:13:55.374Z,9.10
2018-03-26T02:16:56.723Z,9.10
2018-03-26T02:19:58.024Z,9.10
2018-03-26T02:22:59.298Z,9.00
2018-03-26T02:26:01.554Z,9.00
2018-03-26T02:29:02.885Z,9.00
2018-03-26T02:32:04.212Z,9.10
2018-03-26T02:35:05.568Z,9.10
2018-03-26T02:38:06.988Z,9.10
2018-03-26T02:41:08.290Z,9.10
2018-03-26T02:44:09.603Z,9.10
2018-03-26T02:47:10.893Z,9.10
2018-03-26T02:50:12.176Z,9.10
2018-03-26T02:53:13.494Z,9.10
2018-03-26T02:56:15.542Z,9.10
2018-03-26T02:59:16.854Z,9.10
2018-03-26T03:02:18.124Z,9.10
2018-03-26T03:05:19.395Z,9.10
2018-03-26T03:08:20.675Z,9.10
2018-03-26T03:11:21.945Z,9.00
2018-03-26T03:14:23.243Z,9.00
2018-03-26T03:17:25.198Z,8.90
2018-03-26T03:20:26.475Z,8.90
2018-03-26T03:23:28.527Z,8.70
2018-03-26T03:26:29.817Z,8.70
2018-03-26T03:29:31.068Z,8.80
2018-03-26T03:32:32.338Z,8.80
2018-03-26T03:35:33.638Z,8.80
2018-03-26T03:38:35.653Z,8.80
2018-03-26T03:41:36.936Z,8.80
2018-03-26T03:44:38.182Z,8.80
2018-03-26T03:47:39.435Z,8.90
2018-03-26T03:50:40.668Z,8.90
2018-03-26T03:53:42.689Z,8.80
2018-03-26T03:56:43.935Z,8.80
2018-03-26T03:59:45.202Z,8.90
2018-03-26T04:02:46.432Z,8.90
2018-03-26T04:05:47.700Z,8.90
2018-03-26T04:08:49.683Z,8.80
2018-03-26T04:11:51.668Z,8.80
2018-03-26T04:14:53.637Z,8.80
2018-03-26T04:17:55.683Z,8.70
2018-03-26T04:20:56.926Z,8.70
2018-03-26T04:23:58.208Z,8.70
2018-03-26T04:26:59.472Z,8.70
2018-03-26T04:30:00.700Z,8.60
2018-03-26T04:33:01.951Z,8.70
2018-03-26T04:36:03.191Z,8.70
2018-03-26T04:39:04.483Z,8.70
2018-03-26T04:42:05.749Z,8.60
2018-03-26T04:45:07.042Z,8.60
2018-03-26T04:48:08.285Z,8.50
2018-03-26T04:51:09.536Z,8.40
2018-03-26T04:54:10.813Z,8.30
2018-03-26T04:57:12.044Z,8.30
2018-03-26T05:00:14.042Z,8.40
2018-03-26T05:03:15.307Z,8.40
2018-03-26T05:06:16.529Z,8.40
2018-03-26T05:09:17.934Z,8.40
2018-03-26T05:12:19.183Z,8.40
2018-03-26T05:15:21.174Z,8.20
2018-03-26T05:18:22.408Z,8.20
2018-03-26T05:21:23.673Z,8.20
2018-03-26T05:24:24.946Z,8.10
2018-03-26T05:27:26.944Z,8.00
2018-03-26T05:30:28.271Z,8.00
2018-03-26T05:33:29.526Z,8.00
2018-03-26T05:36:30.832Z,8.00
2018-03-26T05:39:32.828Z,8.10
2018-03-26T05:42:34.102Z,8.00
2018-03-26T05:45:35.356Z,8.10
2018-03-26T05:48:36.610Z,8.10
2018-03-26T05:51:37.863Z,8.10
2018-03-26T05:54:39.840Z,8.20
2018-03-26T05:57:41.826Z,8.20
2018-03-26T06:00:43.830Z,8.10
2018-03-26T06:03:45.132Z,8.20
2018-03-26T06:06:53.431Z,8.20
2018-03-26T06:09:54.703Z,8.20
2018-03-26T06:12:55.951Z,8.30
2018-03-26T06:15:57.199Z,8.40
2018-03-26T06:18:58.493Z,8.40
2018-03-26T06:21:59.810Z,8.50
2018-03-26T06:25:01.805Z,8.50
2018-03-26T06:28:03.102Z,8.40
2018-03-26T06:31:04.383Z,8.50
2018-03-26T06:34:05.679Z,8.50
2018-03-26T06:37:13.773Z,8.50
2018-03-26T06:40:15.052Z,8.50
2018-03-26T06:43:16.420Z,8.60
2018-03-26T06:46:17.707Z,8.60
2018-03-26T06:49:19.750Z,8.50
2018-03-26T06:52:21.012Z,8.50
2018-03-26T06:55:22.267Z,8.60
2018-03-26T06:58:23.523Z,8.60
2018-03-26T07:01:24.811Z,8.60
2018-03-26T07:04:26.174Z,8.60
2018-03-26T07:07:27.432Z,8.60
2018-03-26T07:10:28.717Z,8.60
2018-03-26T07:13:30.703Z,8.50
2018-03-26T07:16:32.749Z,8.60
2018-03-26T07:19:34.067Z,8.60
2018-03-26T07:22:35.329Z,8.60
2018-03-26T07:25:36.571Z,8.70
2018-03-26T07:28:37.842Z,8.70
2018-03-26T07:31:39.812Z,8.70
2018-03-26T07:34:41.159Z,8.70
2018-03-26T07:37:42.421Z,8.80
2018-03-26T07:40:43.734Z,8.80
2018-03-26T07:43:45.022Z,8.80
2018-03-26T07:46:46.283Z,8.80
2018-03-26T07:49:47.515Z,8.80
2018-03-26T07:52:48.784Z,8.90
2018-03-26T07:55:50.078Z,9.00
2018-03-26T07:58:51.327Z,8.90
2018-03-26T08:01:52.566Z,9.00
2018-03-26T08:04:54.616Z,9.10
2018-03-26T08:07:55.851Z,9.10
2018-03-26T08:10:57.149Z,9.10
2018-03-26T08:13:58.509Z,9.20
2018-03-26T08:16:59.779Z,9.20
2018-03-26T08:20:01.012Z,9.30
2018-03-26T08:23:02.358Z,9.30
2018-03-26T08:26:03.618Z,9.30
2018-03-26T08:29:04.923Z,9.30
2018-03-26T08:32:06.154Z,9.30
2018-03-26T08:35:07.409Z,9.20
2018-03-26T08:38:08.678Z,9.40
2018-03-26T08:41:09.982Z,9.40
2018-03-26T08:44:11.234Z,9.40
2018-03-26T08:47:12.490Z,9.40
2018-03-26T08:50:13.754Z,9.40
2018-03-26T08:53:15.003Z,9.30
2018-03-26T08:56:16.331Z,9.40
2018-03-26T08:59:18.330Z,9.80
2018-03-26T09:02:19.574Z,9.80
2018-03-26T09:05:21.143Z,10.00
2018-03-26T09:08:23.110Z,10.20
2018-03-26T09:11:25.102Z,10.20
2018-03-26T09:14:27.111Z,9.90
2018-03-26T09:17:28.460Z,9.90
2018-03-26T09:20:29.669Z,9.90
2018-03-26T09:23:31.034Z,10.10
2018-03-26T09:26:33.035Z,10.10
2018-03-26T09:29:34.326Z,10.00
2018-03-26T09:32:35.536Z,10.10
2018-03-26T09:35:36.815Z,10.00
2018-03-26T09:38:38.071Z,9.90
2018-03-26T09:41:39.338Z,10.00
2018-03-26T09:44:40.599Z,10.10
2018-03-26T09:47:41.896Z,10.30
2018-03-26T09:50:43.901Z,10.40
2018-03-26T09:53:45.254Z,10.40
2018-03-26T09:56:46.503Z,10.50
2018-03-26T09:59:48.522Z,10.90
2018-03-26T10:02:49.756Z,10.90
2018-03-26T10:05:51.033Z,10.80
2018-03-26T10:08:52.355Z,10.90
2018-03-26T10:11:53.624Z,11.00
2018-03-26T10:14:54.867Z,10.90
2018-03-26T10:17:56.119Z,10.90
2018-03-26T10:20:57.394Z,11.00
2018-03-26T10:23:58.624Z,11.30
2018-03-26T10:26:59.891Z,11.20
2018-03-26T10:30:01.972Z,10.70
2018-03-26T10:33:03.239Z,10.40
2018-03-26T10:36:04.519Z,10.50
2018-03-26T10:39:05.871Z,11.00
2018-03-26T10:42:07.108Z,11.20
2018-03-26T10:45:08.380Z,11.00
2018-03-26T10:48:09.631Z,10.80
2018-03-26T10:51:10.860Z,10.60
2018-03-26T10:54:12.143Z,10.80
2018-03-26T10:57:14.162Z,11.40
2018-03-26T11:00:15.420Z,11.40
2018-03-26T11:03:23.666Z,11.50
2018-03-26T11:06:24.924Z,11.60
2018-03-26T11:09:26.204Z,11.60
2018-03-26T11:12:27.506Z,11.50
2018-03-26T11:15:29.501Z,11.00
2018-03-26T11:18:30.761Z,11.00
2018-03-26T11:21:32.778Z,10.80
2018-03-26T11:24:34.081Z,10.80
2018-03-26T11:27:35.342Z,11.10
2018-03-26T11:30:36.607Z,11.80
2018-03-26T11:33:37.840Z,12.30
2018-03-26T11:36:39.117Z,12.60
2018-03-26T11:39:40.434Z,12.40
2018-03-26T11:42:41.734Z,12.10
2018-03-26T11:45:43.000Z,11.80
2018-03-26T11:48:44.275Z,11.70
2018-03-26T11:51:45.525Z,11.90
2018-03-26T11:54:46.775Z,12.10
2018-03-26T11:57:48.026Z,12.00
2018-03-26T12:00:49.287Z,12.00
2018-03-26T12:03:50.523Z,11.80
2018-03-26T12:06:52.551Z,11.40
2018-03-26T12:09:53.797Z,11.40
2018-03-26T12:12:55.053Z,11.50
2018-03-26T12:15:56.281Z,11.90
2018-03-26T12:18:58.303Z,12.50
2018-03-26T12:21:59.551Z,12.40
2018-03-26T12:25:11.622Z,12.80
2018-03-26T12:28:31.313Z,13.00
2018-03-26T12:31:32.577Z,13.00
2018-03-26T12:34:52.511Z,12.80
2018-03-26T12:37:54.502Z,11.90
2018-03-26T12:40:56.610Z,11.90
2018-03-26T12:43:57.878Z,11.70
2018-03-26T12:46:59.198Z,11.50
2018-03-26T12:50:01.202Z,11.30
2018-03-26T12:53:02.478Z,11.30
2018-03-26T12:56:03.751Z,11.50
2018-03-26T12:59:05.013Z,11.50
2018-03-26T13:02:19.578Z,11.50
2018-03-26T13:05:20.867Z,11.50
2018-03-26T13:08:22.151Z,11.60
2018-03-26T13:11:23.438Z,12.00
2018-03-26T13:14:25.456Z,12.20
2018-03-26T13:17:26.686Z,12.20
2018-03-26T13:20:28.677Z,12.50
2018-03-26T13:23:29.918Z,12.50
2018-03-26T13:26:31.930Z,12.20
2018-03-26T13:29:33.183Z,12.20
2018-03-26T13:32:34.428Z,12.20
2018-03-26T13:35:36.403Z,12.40
2018-03-26T13:38:37.685Z,12.40
2018-03-26T13:41:45.892Z,12.60
2018-03-26T13:44:47.159Z,12.70
2018-03-26T13:47:56.102Z,12.30
2018-03-26T13:50:58.072Z,12.40
2018-03-26T13:53:59.324Z,12.30
2018-03-26T13:57:00.554Z,12.40
2018-03-26T14:00:01.828Z,12.70
2018-03-26T14:03:03.119Z,12.90
2018-03-26T14:06:04.395Z,13.30
2018-03-26T14:09:24.127Z,13.40
2018-03-26T14:12:43.983Z,13.10
2018-03-26T14:16:03.711Z,13.00
2018-03-26T14:19:04.978Z,13.00
2018-03-26T14:22:06.251Z,12.80
2018-03-26T14:25:07.503Z,13.00
2018-03-26T14:28:08.758Z,12.70
2018-03-26T14:31:10.731Z,12.90
2018-03-26T14:34:12.727Z,14.60
2018-03-26T14:37:13.984Z,14.60
2018-03-26T14:40:15.991Z,13.50
2018-03-26T14:43:17.311Z,13.40
2018-03-26T14:46:18.937Z,13.60
2018-03-26T14:49:20.353Z,14.00
2018-03-26T14:52:21.712Z,14.10
2018-03-26T14:55:23.004Z,13.60
2018-03-26T14:58:24.318Z,13.30
2018-03-26T15:01:25.568Z,13.20
2018-03-26T15:04:26.831Z,13.10
2018-03-26T15:07:28.118Z,12.80
2018-03-26T15:10:29.390Z,13.40
2018-03-26T15:13:30.671Z,13.30
2018-03-26T15:16:32.686Z,12.80
2018-03-26T15:19:33.934Z,12.80
2018-03-26T15:22:35.180Z,12.70
2018-03-26T15:25:37.199Z,12.20
2018-03-26T15:28:38.463Z,12.20
2018-03-26T15:31:39.715Z,12.00
2018-03-26T15:34:40.968Z,11.70
2018-03-26T15:37:42.203Z,11.60
2018-03-26T15:40:44.212Z,11.70
2018-03-26T15:47:15.444Z,11.40
2018-03-26T15:50:16.684Z,11.40
2018-03-26T15:53:17.928Z,11.50
2018-03-26T15:56:19.939Z,11.50
2018-03-26T15:59:21.212Z,11.50
2018-03-26T16:02:22.510Z,11.50
2018-03-26T16:05:23.756Z,11.40
2018-03-26T16:08:25.034Z,11.40
2018-03-26T16:11:26.283Z,11.40
2018-03-26T16:14:27.524Z,11.40
2018-03-26T16:17:28.777Z,11.30
2018-03-26T16:20:30.029Z,11.30
2018-03-26T16:23:31.296Z,11.30
2018-03-26T16:26:32.619Z,11.20
2018-03-26T16:29:33.928Z,11.20
2018-03-26T16:32:35.141Z,11.20
2018-03-26T16:35:36.386Z,11.10
2018-03-26T16:38:37.644Z,11.10
2018-03-26T16:41:45.929Z,11.10
2018-03-26T16:44:47.248Z,11.10
2018-03-26T16:47:48.505Z,11.10
2018-03-26T16:50:49.804Z,11.10
2018-03-26T16:53:51.840Z,11.10
2018-03-26T16:56:53.130Z,11.00
2018-03-26T16:59:54.403Z,11.00
2018-03-26T17:02:55.669Z,11.00
2018-03-26T17:05:58.439Z,10.90
2018-03-26T17:09:00.974Z,10.90
2018-03-26T17:12:02.355Z,10.90
2018-03-26T17:15:04.315Z,11.00
2018-03-26T17:18:06.864Z,11.00
2018-03-26T17:21:08.341Z,11.00
2018-03-26T17:24:10.083Z,11.10
2018-03-26T17:27:11.406Z,11.00
2018-03-26T17:30:13.197Z,10.90
2018-03-26T17:33:14.472Z,10.90
2018-03-26T17:36:15.727Z,10.90
2018-03-26T17:39:17.719Z,10.80
2018-03-26T17:42:18.959Z,10.80
2018-03-26T17:45:21.442Z,10.70
2018-03-26T17:48:22.743Z,10.70
2018-03-26T17:51:24.274Z,10.70
2018-03-26T17:54:25.590Z,10.70
2018-03-26T17:57:26.818Z,10.60
2018-03-26T18:00:29.303Z,10.50
2018-03-26T18:03:30.665Z,10.50
2018-03-26T18:06:31.904Z,10.20
2018-03-26T18:09:33.182Z,10.20
2018-03-26T18:12:34.504Z,10.10
2018-03-26T18:15:35.753Z,10.00
2018-03-26T18:18:37.056Z,10.00
2018-03-26T18:21:38.598Z,9.90
2018-03-26T18:24:41.124Z,9.80
2018-03-26T18:27:42.674Z,9.60
2018-03-26T18:30:44.975Z,9.60
2018-03-26T18:33:46.767Z,9.40
2018-03-26T18:36:48.103Z,9.40
2018-03-26T18:39:49.899Z,9.40
2018-03-26T18:42:51.215Z,9.40
2018-03-26T18:45:53.690Z,9.30
2018-03-26T18:48:56.227Z,9.30
2018-03-26T18:51:58.111Z,9.20
2018-03-26T18:54:59.488Z,9.20
2018-03-26T18:58:01.365Z,9.10
2018-03-26T19:01:03.378Z,9.10
2018-03-26T19:04:06.035Z,9.20
2018-03-26T19:07:07.755Z,9.20
2018-03-26T19:10:09.067Z,9.40
2018-03-26T19:13:10.714Z,9.50
2018-03-26T19:16:12.769Z,9.70
2018-03-26T19:19:15.098Z,9.50
2018-03-26T19:22:16.819Z,9.50
2018-03-26T19:25:18.131Z,9.30
2018-03-26T19:28:19.507Z,9.20
2018-03-26T19:31:21.391Z,9.10
2018-03-26T19:34:23.144Z,9.00
2018-03-26T19:37:24.399Z,8.90
2018-03-26T19:40:26.187Z,9.00
2018-03-26T19:43:27.781Z,9.00
2018-03-26T19:46:29.055Z,9.10
2018-03-26T19:49:30.959Z,9.20
2018-03-26T19:52:32.651Z,9.20
2018-03-26T19:55:34.531Z,9.00
2018-03-26T19:58:35.949Z,8.90
2018-03-26T20:01:37.728Z,9.00
2018-03-26T20:04:38.986Z,8.90
2018-03-26T20:07:40.765Z,8.90
2018-03-26T20:10:42.849Z,8.90
2018-03-26T20:13:44.549Z,8.90
2018-03-26T20:16:46.314Z,8.80
2018-03-26T20:19:48.206Z,8.90
2018-03-26T20:22:51.117Z,8.90
2018-03-26T20:25:52.515Z,8.90
2018-03-26T20:28:54.313Z,9.00
2018-03-26T20:31:56.363Z,9.00
2018-03-26T20:34:57.642Z,8.90
2018-03-26T20:38:00.157Z,9.10
2018-03-26T20:41:01.792Z,9.10
2018-03-26T20:44:03.271Z,8.90
2018-03-26T20:47:04.862Z,8.90
2018-03-26T20:50:06.263Z,9.00
2018-03-26T20:53:08.819Z,9.00
2018-03-26T20:56:10.634Z,9.00
2018-03-26T20:59:11.919Z,8.60
2018-03-26T21:02:13.241Z,8.70
2018-03-26T21:05:14.583Z,8.70
2018-03-26T21:08:17.539Z,8.80
2018-03-26T21:11:19.015Z,9.00
2018-03-26T21:14:20.719Z,9.20
2018-03-26T21:17:22.132Z,9.10
2018-03-26T21:20:24.197Z,8.60
2018-03-26T21:23:25.489Z,8.60
2018-03-26T21:26:27.584Z,8.50
2018-03-26T21:29:28.919Z,8.50
2018-03-26T21:32:30.195Z,8.50
2018-03-26T21:35:32.235Z,8.30
2018-03-26T21:38:33.534Z,8.30
2018-03-26T21:41:34.842Z,8.30
2018-03-26T21:44:36.225Z,8.30
2018-03-26T21:47:37.478Z,8.30
2018-03-26T21:50:38.809Z,8.40
2018-03-26T21:53:40.882Z,8.40
2018-03-26T21:56:42.155Z,8.40
2018-03-26T21:59:44.237Z,8.30
2018-03-26T22:02:46.317Z,8.30
2018-03-26T22:05:48.310Z,8.30
2018-03-26T22:08:49.562Z,8.30
2018-03-26T22:11:51.563Z,8.40
2018-03-26T22:14:52.819Z,8.40
2018-03-26T22:17:54.066Z,8.40
2018-03-26T22:20:56.059Z,7.40
2018-03-26T22:23:57.342Z,7.30
2018-03-26T22:26:58.592Z,7.40
2018-03-26T22:29:59.918Z,7.50
2018-03-26T22:33:01.277Z,7.40
2018-03-26T22:36:02.579Z,7.30
2018-03-26T22:39:04.578Z,7.20
2018-03-26T22:42:05.828Z,7.20
2018-03-26T22:45:07.075Z,6.90
2018-03-26T22:48:08.367Z,6.90
2018-03-26T22:51:09.648Z,6.70
2018-03-26T22:54:10.942Z,6.90
2018-03-26T22:57:12.198Z,7.00
2018-03-26T23:00:13.503Z,7.00
2018-03-26T23:03:14.774Z,6.90
2018-03-26T23:06:16.034Z,6.80
2018-03-26T23:09:17.293Z,6.50
2018-03-26T23:12:18.562Z,6.60
2018-03-26T23:15:19.802Z,6.50
2018-03-26T23:18:21.807Z,6.80
2018-03-26T23:21:23.060Z,6.80
2018-03-26T23:24:24.338Z,6.70
2018-03-26T23:27:25.634Z,6.70
2018-03-26T23:30:26.914Z,6.80
2018-03-26T23:33:28.172Z,6.60
2018-03-26T23:36:29.411Z,6.90
2018-03-26T23:39:30.715Z,6.90
2018-03-26T23:42:31.981Z,6.80
2018-03-26T23:45:33.233Z,6.70
2018-03-26T23:48:34.506Z,6.70
2018-03-26T23:51:35.791Z,7.00
2018-03-26T23:54:37.815Z,7.10
2018-03-26T23:57:39.109Z,7.10
